sensor_id;sensor_type;location;lat;lon;timestamp;pressure;altitude;pressure_sealevel;temperature;humidity
69127;BME280;56688;50.234;19.292;2023-02-18T00:02:22;98159.54;;;9.62;79.98
69127;BME280;56688;50.234;19.292;2023-02-18T00:04:48;98158.73;;;9.64;79.80
69127;BME280;56688;50.234;19.292;2023-02-18T00:07:15;98160.73;;;9.67;79.71
69127;BME280;56688;50.234;19.292;2023-02-18T00:09:42;98161.13;;;9.68;79.62
69127;BME280;56688;50.234;19.292;2023-02-18T00:12:09;98156.66;;;9.69;79.27
69127;BME280;56688;50.234;19.292;2023-02-18T00:14:37;98153.59;;;9.71;79.36
69127;BME280;56688;50.234;19.292;2023-02-18T00:17:04;98154.81;;;9.74;79.25
69127;BME280;56688;50.234;19.292;2023-02-18T00:19:30;98146.13;;;9.75;79.26
69127;BME280;56688;50.234;19.292;2023-02-18T00:21:57;98148.52;;;9.74;79.28
69127;BME280;56688;50.234;19.292;2023-02-18T00:24:24;98148.27;;;9.75;79.06
69127;BME280;56688;50.234;19.292;2023-02-18T00:26:51;98154.92;;;9.78;78.74
69127;BME280;56688;50.234;19.292;2023-02-18T00:29:19;98159.42;;;9.81;78.60
69127;BME280;56688;50.234;19.292;2023-02-18T00:31:47;98157.41;;;9.84;78.50
69127;BME280;56688;50.234;19.292;2023-02-18T00:34:13;98171.95;;;9.86;78.31
69127;BME280;56688;50.234;19.292;2023-02-18T00:36:41;98178.25;;;9.89;78.40
69127;BME280;56688;50.234;19.292;2023-02-18T00:39:09;98184.36;;;9.91;78.37
69127;BME280;56688;50.234;19.292;2023-02-18T00:41:38;98191.10;;;9.91;78.65
69127;BME280;56688;50.234;19.292;2023-02-18T00:44:05;98219.79;;;9.88;79.05
69127;BME280;56688;50.234;19.292;2023-02-18T00:46:33;98237.98;;;9.85;79.45
69127;BME280;56688;50.234;19.292;2023-02-18T00:49:00;98263.04;;;9.82;80.02
69127;BME280;56688;50.234;19.292;2023-02-18T00:51:27;98274.86;;;9.79;80.29
69127;BME280;56688;50.234;19.292;2023-02-18T00:53:54;98274.13;;;9.74;79.69
69127;BME280;56688;50.234;19.292;2023-02-18T00:56:22;98274.83;;;9.70;80.00
69127;BME280;56688;50.234;19.292;2023-02-18T00:58:49;98273.81;;;9.65;79.82
69127;BME280;56688;50.234;19.292;2023-02-18T01:01:17;98269.20;;;9.62;79.67
69127;BME280;56688;50.234;19.292;2023-02-18T01:03:45;98271.48;;;9.62;79.62
69127;BME280;56688;50.234;19.292;2023-02-18T01:06:13;98255.64;;;9.54;78.83
69127;BME280;56688;50.234;19.292;2023-02-18T01:08:40;98270.99;;;9.52;77.66
69127;BME280;56688;50.234;19.292;2023-02-18T01:11:09;98276.42;;;9.45;77.15
69127;BME280;56688;50.234;19.292;2023-02-18T01:13:37;98276.67;;;9.40;76.96
69127;BME280;56688;50.234;19.292;2023-02-18T01:16:05;98270.98;;;9.36;76.64
69127;BME280;56688;50.234;19.292;2023-02-18T01:18:34;98272.26;;;9.31;76.05
69127;BME280;56688;50.234;19.292;2023-02-18T01:21:03;98273.26;;;9.26;75.58
69127;BME280;56688;50.234;19.292;2023-02-18T01:23:30;98273.77;;;9.18;74.99
69127;BME280;56688;50.234;19.292;2023-02-18T01:25:57;98276.66;;;9.13;75.05
69127;BME280;56688;50.234;19.292;2023-02-18T01:28:24;98275.79;;;9.07;74.01
69127;BME280;56688;50.234;19.292;2023-02-18T01:30:52;98281.69;;;9.04;74.05
69127;BME280;56688;50.234;19.292;2023-02-18T01:33:20;98281.27;;;9.00;73.77
69127;BME280;56688;50.234;19.292;2023-02-18T01:35:47;98285.95;;;8.96;73.53
69127;BME280;56688;50.234;19.292;2023-02-18T01:38:14;98271.95;;;8.93;72.71
69127;BME280;56688;50.234;19.292;2023-02-18T01:40:46;98276.52;;;8.95;71.86
69127;BME280;56688;50.234;19.292;2023-02-18T01:43:14;98276.98;;;8.95;70.64
69127;BME280;56688;50.234;19.292;2023-02-18T01:48:30;98292.56;;;8.93;69.46
69127;BME280;56688;50.234;19.292;2023-02-18T01:51:02;98294.56;;;8.89;69.96
69127;BME280;56688;50.234;19.292;2023-02-18T01:53:38;98302.16;;;8.85;69.43
69127;BME280;56688;50.234;19.292;2023-02-18T01:56:11;98298.66;;;8.83;68.97
69127;BME280;56688;50.234;19.292;2023-02-18T01:58:40;98299.64;;;8.82;68.30
69127;BME280;56688;50.234;19.292;2023-02-18T02:01:08;98300.48;;;8.80;68.09
69127;BME280;56688;50.234;19.292;2023-02-18T02:03:35;98297.41;;;8.77;67.32
69127;BME280;56688;50.234;19.292;2023-02-18T02:06:11;98301.54;;;8.76;66.66
69127;BME280;56688;50.234;19.292;2023-02-18T02:08:40;98294.05;;;8.71;66.53
69127;BME280;56688;50.234;19.292;2023-02-18T02:19:13;98288.08;;;8.57;64.79
69127;BME280;56688;50.234;19.292;2023-02-18T02:21:47;98284.55;;;8.57;62.86
69127;BME280;56688;50.234;19.292;2023-02-18T02:24:42;98286.54;;;8.55;61.98
69127;BME280;56688;50.234;19.292;2023-02-18T02:35:29;98298.48;;;8.44;56.58
69127;BME280;56688;50.234;19.292;2023-02-18T02:38:04;98302.14;;;8.37;56.26
69127;BME280;56688;50.234;19.292;2023-02-18T02:40:42;98305.70;;;8.35;54.24
69127;BME280;56688;50.234;19.292;2023-02-18T02:46:02;98318.66;;;8.31;54.85
69127;BME280;56688;50.234;19.292;2023-02-18T02:48:48;98321.08;;;8.26;54.26
69127;BME280;56688;50.234;19.292;2023-02-18T02:51:27;98316.07;;;8.23;54.32
69127;BME280;56688;50.234;19.292;2023-02-18T02:54:13;98314.35;;;8.21;54.66
69127;BME280;56688;50.234;19.292;2023-02-18T02:56:41;98321.78;;;8.18;55.44
69127;BME280;56688;50.234;19.292;2023-02-18T02:59:17;98317.56;;;8.13;56.04
69127;BME280;56688;50.234;19.292;2023-02-18T03:04:38;98326.52;;;8.11;57.16
69127;BME280;56688;50.234;19.292;2023-02-18T03:09:57;98333.46;;;8.14;58.94
69127;BME280;56688;50.234;19.292;2023-02-18T03:18:03;98346.11;;;8.03;61.25
69127;BME280;56688;50.234;19.292;2023-02-18T03:20:36;98346.36;;;7.97;62.12
69127;BME280;56688;50.234;19.292;2023-02-18T03:23:08;98356.58;;;7.90;63.30
69127;BME280;56688;50.234;19.292;2023-02-18T03:25:38;98354.80;;;7.82;64.59
69127;BME280;56688;50.234;19.292;2023-02-18T03:28:13;98360.67;;;7.75;65.22
69127;BME280;56688;50.234;19.292;2023-02-18T03:30:47;98361.58;;;7.69;65.95
69127;BME280;56688;50.234;19.292;2023-02-18T03:33:23;98367.23;;;7.68;64.98
69127;BME280;56688;50.234;19.292;2023-02-18T03:35:53;98372.88;;;7.70;64.34
69127;BME280;56688;50.234;19.292;2023-02-18T03:38:26;98371.42;;;7.68;63.76
69127;BME280;56688;50.234;19.292;2023-02-18T03:40:55;98373.55;;;7.68;62.92
69127;BME280;56688;50.234;19.292;2023-02-18T03:43:22;98372.99;;;7.67;62.40
69127;BME280;56688;50.234;19.292;2023-02-18T03:45:49;98374.31;;;7.66;61.99
69127;BME280;56688;50.234;19.292;2023-02-18T03:48:18;98375.42;;;7.63;61.51
69127;BME280;56688;50.234;19.292;2023-02-18T03:50:45;98371.63;;;7.57;60.91
69127;BME280;56688;50.234;19.292;2023-02-18T03:53:12;98372.48;;;7.53;60.72
69127;BME280;56688;50.234;19.292;2023-02-18T03:55:39;98376.50;;;7.48;60.53
69127;BME280;56688;50.234;19.292;2023-02-18T03:58:06;98376.77;;;7.43;60.83
69127;BME280;56688;50.234;19.292;2023-02-18T04:00:32;98376.29;;;7.38;61.11
69127;BME280;56688;50.234;19.292;2023-02-18T04:03:00;98371.02;;;7.33;61.97
69127;BME280;56688;50.234;19.292;2023-02-18T04:05:26;98373.16;;;7.26;62.71
69127;BME280;56688;50.234;19.292;2023-02-18T04:07:54;98372.41;;;7.21;63.70
69127;BME280;56688;50.234;19.292;2023-02-18T04:10:21;98381.70;;;7.17;64.47
69127;BME280;56688;50.234;19.292;2023-02-18T04:12:48;98379.21;;;7.15;65.45
69127;BME280;56688;50.234;19.292;2023-02-18T04:15:15;98382.24;;;7.17;66.32
69127;BME280;56688;50.234;19.292;2023-02-18T04:17:42;98380.58;;;7.21;66.24
69127;BME280;56688;50.234;19.292;2023-02-18T04:20:09;98381.30;;;7.22;66.31
69127;BME280;56688;50.234;19.292;2023-02-18T04:22:36;98384.14;;;7.21;65.90
69127;BME280;56688;50.234;19.292;2023-02-18T04:25:04;98385.98;;;7.17;65.71
69127;BME280;56688;50.234;19.292;2023-02-18T04:27:31;98382.52;;;7.15;65.47
69127;BME280;56688;50.234;19.292;2023-02-18T04:29:58;98388.06;;;7.11;65.56
69127;BME280;56688;50.234;19.292;2023-02-18T04:32:25;98388.13;;;7.12;66.04
69127;BME280;56688;50.234;19.292;2023-02-18T04:34:52;98387.78;;;7.14;66.38
69127;BME280;56688;50.234;19.292;2023-02-18T04:37:18;98392.88;;;7.16;65.88
69127;BME280;56688;50.234;19.292;2023-02-18T04:39:45;98394.09;;;7.18;64.13
69127;BME280;56688;50.234;19.292;2023-02-18T04:42:12;98398.28;;;7.20;61.52
69127;BME280;56688;50.234;19.292;2023-02-18T04:44:40;98398.45;;;7.23;58.60
69127;BME280;56688;50.234;19.292;2023-02-18T04:47:07;98400.84;;;7.24;56.71
69127;BME280;56688;50.234;19.292;2023-02-18T04:49:34;98406.55;;;7.22;55.54
69127;BME280;56688;50.234;19.292;2023-02-18T04:52:01;98402.27;;;7.22;52.39
69127;BME280;56688;50.234;19.292;2023-02-18T04:54:28;98404.59;;;7.20;51.98
69127;BME280;56688;50.234;19.292;2023-02-18T04:56:54;98408.33;;;7.16;51.62
69127;BME280;56688;50.234;19.292;2023-02-18T04:59:21;98406.91;;;7.12;49.19
69127;BME280;56688;50.234;19.292;2023-02-18T05:01:49;98411.51;;;7.12;47.81
69127;BME280;56688;50.234;19.292;2023-02-18T05:04:16;98415.66;;;7.10;47.87
69127;BME280;56688;50.234;19.292;2023-02-18T05:06:43;98417.44;;;7.05;47.32
69127;BME280;56688;50.234;19.292;2023-02-18T05:09:10;98418.33;;;7.02;46.81
69127;BME280;56688;50.234;19.292;2023-02-18T05:11:37;98412.86;;;7.00;46.71
69127;BME280;56688;50.234;19.292;2023-02-18T05:14:04;98416.66;;;7.00;47.07
69127;BME280;56688;50.234;19.292;2023-02-18T05:16:31;98410.56;;;6.97;46.63
69127;BME280;56688;50.234;19.292;2023-02-18T05:18:58;98412.06;;;6.94;47.28
69127;BME280;56688;50.234;19.292;2023-02-18T05:21:25;98412.20;;;6.90;47.20
69127;BME280;56688;50.234;19.292;2023-02-18T05:23:52;98419.64;;;6.83;48.00
69127;BME280;56688;50.234;19.292;2023-02-18T05:26:18;98421.08;;;6.77;47.97
69127;BME280;56688;50.234;19.292;2023-02-18T05:28:45;98419.45;;;6.71;47.74
69127;BME280;56688;50.234;19.292;2023-02-18T05:31:12;98414.73;;;6.68;47.75
69127;BME280;56688;50.234;19.292;2023-02-18T05:33:40;98416.36;;;6.68;47.77
69127;BME280;56688;50.234;19.292;2023-02-18T05:36:07;98414.60;;;6.68;48.56
69127;BME280;56688;50.234;19.292;2023-02-18T05:38:34;98409.64;;;6.63;48.68
69127;BME280;56688;50.234;19.292;2023-02-18T05:41:01;98407.37;;;6.59;48.57
69127;BME280;56688;50.234;19.292;2023-02-18T05:43:28;98417.20;;;6.58;48.90
69127;BME280;56688;50.234;19.292;2023-02-18T05:45:54;98421.17;;;6.58;48.43
69127;BME280;56688;50.234;19.292;2023-02-18T05:48:22;98419.65;;;6.59;48.20
69127;BME280;56688;50.234;19.292;2023-02-18T05:50:48;98425.79;;;6.59;47.89
69127;BME280;56688;50.234;19.292;2023-02-18T05:53:19;98429.14;;;6.61;47.58
69127;BME280;56688;50.234;19.292;2023-02-18T05:55:46;98429.16;;;6.61;47.68
69127;BME280;56688;50.234;19.292;2023-02-18T05:58:13;98425.17;;;6.59;48.25
69127;BME280;56688;50.234;19.292;2023-02-18T06:00:39;98424.17;;;6.55;48.26
69127;BME280;56688;50.234;19.292;2023-02-18T06:03:06;98427.34;;;6.50;48.44
69127;BME280;56688;50.234;19.292;2023-02-18T06:05:33;98431.40;;;6.45;49.41
69127;BME280;56688;50.234;19.292;2023-02-18T06:08:00;98433.51;;;6.40;49.44
69127;BME280;56688;50.234;19.292;2023-02-18T06:10:27;98439.13;;;6.37;49.86
69127;BME280;56688;50.234;19.292;2023-02-18T06:12:54;98437.70;;;6.37;49.35
69127;BME280;56688;50.234;19.292;2023-02-18T06:15:20;98443.76;;;6.42;49.62
69127;BME280;56688;50.234;19.292;2023-02-18T06:17:47;98436.29;;;6.46;48.85
69127;BME280;56688;50.234;19.292;2023-02-18T06:20:14;98440.96;;;6.55;47.08
69127;BME280;56688;50.234;19.292;2023-02-18T06:22:41;98447.17;;;6.64;47.43
69127;BME280;56688;50.234;19.292;2023-02-18T06:25:08;98446.23;;;6.70;46.89
69127;BME280;56688;50.234;19.292;2023-02-18T06:27:38;98445.36;;;6.78;47.00
69127;BME280;56688;50.234;19.292;2023-02-18T06:30:06;98450.09;;;6.87;46.49
69127;BME280;56688;50.234;19.292;2023-02-18T06:32:33;98447.98;;;6.95;46.79
69127;BME280;56688;50.234;19.292;2023-02-18T06:35:01;98450.80;;;7.06;46.37
69127;BME280;56688;50.234;19.292;2023-02-18T06:37:28;98446.30;;;7.15;46.33
69127;BME280;56688;50.234;19.292;2023-02-18T06:39:55;98444.34;;;7.23;46.11
69127;BME280;56688;50.234;19.292;2023-02-18T06:42:22;98448.39;;;7.32;46.22
69127;BME280;56688;50.234;19.292;2023-02-18T06:44:49;98446.85;;;7.46;45.79
69127;BME280;56688;50.234;19.292;2023-02-18T06:47:15;98448.97;;;7.68;44.95
69127;BME280;56688;50.234;19.292;2023-02-18T06:49:42;98440.29;;;7.87;44.71
69127;BME280;56688;50.234;19.292;2023-02-18T06:52:09;98438.42;;;8.01;44.47
69127;BME280;56688;50.234;19.292;2023-02-18T06:54:36;98440.41;;;8.14;44.17
69127;BME280;56688;50.234;19.292;2023-02-18T06:57:03;98441.70;;;8.18;42.30
69127;BME280;56688;50.234;19.292;2023-02-18T06:59:30;98451.70;;;8.22;42.19
69127;BME280;56688;50.234;19.292;2023-02-18T07:01:56;98455.98;;;8.28;42.50
69127;BME280;56688;50.234;19.292;2023-02-18T07:04:23;98461.30;;;8.34;42.68
69127;BME280;56688;50.234;19.292;2023-02-18T07:06:50;98463.67;;;8.46;42.55
69127;BME280;56688;50.234;19.292;2023-02-18T07:09:17;98470.80;;;8.66;42.12
69127;BME280;56688;50.234;19.292;2023-02-18T07:11:44;98460.54;;;8.95;41.89
69127;BME280;56688;50.234;19.292;2023-02-18T07:14:10;98460.25;;;9.09;41.54
69127;BME280;56688;50.234;19.292;2023-02-18T07:16:37;98455.42;;;9.11;41.18
69127;BME280;56688;50.234;19.292;2023-02-18T07:19:04;98456.20;;;9.05;40.94
69127;BME280;56688;50.234;19.292;2023-02-18T07:21:31;98462.70;;;8.99;41.06
69127;BME280;56688;50.234;19.292;2023-02-18T07:24:14;98460.87;;;8.92;41.51
69127;BME280;56688;50.234;19.292;2023-02-18T07:26:40;98462.55;;;8.85;41.35
69127;BME280;56688;50.234;19.292;2023-02-18T07:29:07;98465.51;;;8.80;41.45
69127;BME280;56688;50.234;19.292;2023-02-18T07:31:34;98465.98;;;8.76;41.70
69127;BME280;56688;50.234;19.292;2023-02-18T07:34:01;98462.34;;;8.72;41.86
69127;BME280;56688;50.234;19.292;2023-02-18T07:36:28;98464.01;;;8.68;42.31
69127;BME280;56688;50.234;19.292;2023-02-18T07:38:55;98469.89;;;8.63;41.50
69127;BME280;56688;50.234;19.292;2023-02-18T07:41:22;98460.05;;;8.56;41.60
69127;BME280;56688;50.234;19.292;2023-02-18T07:43:49;98465.64;;;8.51;41.69
69127;BME280;56688;50.234;19.292;2023-02-18T07:46:16;98457.76;;;8.45;41.76
69127;BME280;56688;50.234;19.292;2023-02-18T07:48:43;98467.48;;;8.41;41.45
69127;BME280;56688;50.234;19.292;2023-02-18T07:51:11;98467.52;;;8.38;41.82
69127;BME280;56688;50.234;19.292;2023-02-18T07:53:39;98465.31;;;8.35;41.61
69127;BME280;56688;50.234;19.292;2023-02-18T07:56:06;98469.39;;;8.32;41.44
69127;BME280;56688;50.234;19.292;2023-02-18T07:58:36;98470.42;;;8.30;41.53
69127;BME280;56688;50.234;19.292;2023-02-18T08:01:08;98470.77;;;8.31;41.16
69127;BME280;56688;50.234;19.292;2023-02-18T08:03:35;98466.13;;;8.29;40.75
69127;BME280;56688;50.234;19.292;2023-02-18T08:06:04;98472.80;;;8.31;41.54
69127;BME280;56688;50.234;19.292;2023-02-18T08:08:32;98471.21;;;8.31;41.19
69127;BME280;56688;50.234;19.292;2023-02-18T08:11:02;98466.11;;;8.29;40.96
69127;BME280;56688;50.234;19.292;2023-02-18T08:13:43;98470.05;;;8.30;40.85
69127;BME280;56688;50.234;19.292;2023-02-18T08:16:13;98472.86;;;8.29;40.80
69127;BME280;56688;50.234;19.292;2023-02-18T08:18:40;98477.48;;;8.31;40.93
69127;BME280;56688;50.234;19.292;2023-02-18T08:21:07;98472.55;;;8.34;41.71
69127;BME280;56688;50.234;19.292;2023-02-18T08:23:34;98466.17;;;8.40;41.47
69127;BME280;56688;50.234;19.292;2023-02-18T08:26:01;98461.86;;;8.44;41.01
69127;BME280;56688;50.234;19.292;2023-02-18T08:28:28;98459.40;;;8.48;40.85
69127;BME280;56688;50.234;19.292;2023-02-18T08:30:55;98462.91;;;8.51;40.80
69127;BME280;56688;50.234;19.292;2023-02-18T08:33:22;98458.52;;;8.53;40.44
69127;BME280;56688;50.234;19.292;2023-02-18T08:35:51;98463.73;;;8.54;40.20
69127;BME280;56688;50.234;19.292;2023-02-18T08:38:19;98459.52;;;8.56;40.49
69127;BME280;56688;50.234;19.292;2023-02-18T08:40:46;98460.46;;;8.57;40.36
69127;BME280;56688;50.234;19.292;2023-02-18T08:43:14;98469.85;;;8.57;40.84
69127;BME280;56688;50.234;19.292;2023-02-18T08:45:42;98474.17;;;8.58;40.75
69127;BME280;56688;50.234;19.292;2023-02-18T08:48:12;98468.02;;;8.59;40.49
69127;BME280;56688;50.234;19.292;2023-02-18T08:50:46;98468.25;;;8.60;40.54
69127;BME280;56688;50.234;19.292;2023-02-18T08:53:13;98473.73;;;8.62;40.87
69127;BME280;56688;50.234;19.292;2023-02-18T08:55:41;98478.34;;;8.64;41.05
69127;BME280;56688;50.234;19.292;2023-02-18T08:58:08;98472.83;;;8.65;40.72
69127;BME280;56688;50.234;19.292;2023-02-18T09:00:35;98480.95;;;8.66;40.92
69127;BME280;56688;50.234;19.292;2023-02-18T09:03:02;98472.30;;;8.67;40.62
69127;BME280;56688;50.234;19.292;2023-02-18T09:05:29;98475.77;;;8.68;40.90
69127;BME280;56688;50.234;19.292;2023-02-18T09:07:56;98464.52;;;8.70;41.43
69127;BME280;56688;50.234;19.292;2023-02-18T09:10:24;98473.69;;;8.73;42.29
69127;BME280;56688;50.234;19.292;2023-02-18T09:12:51;98471.42;;;8.78;42.27
69127;BME280;56688;50.234;19.292;2023-02-18T09:15:18;98478.63;;;8.81;41.77
69127;BME280;56688;50.234;19.292;2023-02-18T09:17:44;98476.29;;;8.86;42.09
69127;BME280;56688;50.234;19.292;2023-02-18T09:20:14;98476.36;;;8.95;42.42
69127;BME280;56688;50.234;19.292;2023-02-18T09:22:41;98473.23;;;9.01;42.39
69127;BME280;56688;50.234;19.292;2023-02-18T09:25:08;98470.17;;;9.07;42.61
69127;BME280;56688;50.234;19.292;2023-02-18T09:27:35;98464.16;;;9.12;42.79
69127;BME280;56688;50.234;19.292;2023-02-18T09:30:02;98461.65;;;9.14;42.59
69127;BME280;56688;50.234;19.292;2023-02-18T09:32:29;98457.02;;;9.14;43.03
69127;BME280;56688;50.234;19.292;2023-02-18T09:35:02;98462.67;;;9.10;43.50
69127;BME280;56688;50.234;19.292;2023-02-18T09:37:29;98463.23;;;9.05;44.02
69127;BME280;56688;50.234;19.292;2023-02-18T09:39:56;98468.58;;;9.02;44.50
69127;BME280;56688;50.234;19.292;2023-02-18T09:42:30;98469.36;;;9.00;45.02
69127;BME280;56688;50.234;19.292;2023-02-18T09:45:02;98467.27;;;9.03;45.78
69127;BME280;56688;50.234;19.292;2023-02-18T09:47:35;98458.13;;;9.05;45.96
69127;BME280;56688;50.234;19.292;2023-02-18T09:52:35;98459.32;;;9.10;46.81
69127;BME280;56688;50.234;19.292;2023-02-18T09:55:24;98456.09;;;9.16;47.44
69127;BME280;56688;50.234;19.292;2023-02-18T09:57:56;98443.73;;;9.24;47.57
69127;BME280;56688;50.234;19.292;2023-02-18T10:00:32;98439.62;;;9.32;47.72
69127;BME280;56688;50.234;19.292;2023-02-18T10:03:02;98430.89;;;9.38;47.50
69127;BME280;56688;50.234;19.292;2023-02-18T10:05:30;98422.06;;;9.40;47.16
69127;BME280;56688;50.234;19.292;2023-02-18T10:08:03;98422.88;;;9.40;46.92
69127;BME280;56688;50.234;19.292;2023-02-18T10:10:42;98428.14;;;9.37;47.34
69127;BME280;56688;50.234;19.292;2023-02-18T10:13:14;98436.41;;;9.35;47.62
69127;BME280;56688;50.234;19.292;2023-02-18T10:15:41;98428.02;;;9.33;46.45
69127;BME280;56688;50.234;19.292;2023-02-18T10:21:06;98430.47;;;9.16;46.54
69127;BME280;56688;50.234;19.292;2023-02-18T10:23:37;98437.52;;;9.09;46.66
69127;BME280;56688;50.234;19.292;2023-02-18T10:26:11;98440.37;;;9.04;46.46
69127;BME280;56688;50.234;19.292;2023-02-18T10:28:40;98447.67;;;9.00;47.21
69127;BME280;56688;50.234;19.292;2023-02-18T10:31:09;98450.94;;;8.95;47.31
69127;BME280;56688;50.234;19.292;2023-02-18T10:44:16;98448.26;;;8.41;53.97
69127;BME280;56688;50.234;19.292;2023-02-18T10:49:41;98446.95;;;8.42;55.01
69127;BME280;56688;50.234;19.292;2023-02-18T10:52:17;98449.25;;;8.44;55.01
69127;BME280;56688;50.234;19.292;2023-02-18T10:54:57;98442.82;;;8.49;55.49
69127;BME280;56688;50.234;19.292;2023-02-18T10:57:24;98434.04;;;8.54;55.26
69127;BME280;56688;50.234;19.292;2023-02-18T11:05:55;98424.66;;;8.71;56.37
69127;BME280;56688;50.234;19.292;2023-02-18T11:08:26;98414.36;;;8.77;56.52
69127;BME280;56688;50.234;19.292;2023-02-18T11:10:54;98416.09;;;8.80;56.27
69127;BME280;56688;50.234;19.292;2023-02-18T11:13:26;98410.89;;;8.80;56.19
69127;BME280;56688;50.234;19.292;2023-02-18T11:15:55;98409.52;;;8.78;56.31
69127;BME280;56688;50.234;19.292;2023-02-18T11:20:57;98400.39;;;8.58;56.90
69127;BME280;56688;50.234;19.292;2023-02-18T11:23:24;98399.11;;;8.50;57.41
69127;BME280;56688;50.234;19.292;2023-02-18T11:25:55;98388.23;;;8.45;57.72
69127;BME280;56688;50.234;19.292;2023-02-18T11:28:31;98392.85;;;8.34;57.87
69127;BME280;56688;50.234;19.292;2023-02-18T11:31:01;98392.39;;;8.25;58.66
69127;BME280;56688;50.234;19.292;2023-02-18T11:33:35;98386.30;;;8.21;58.69
69127;BME280;56688;50.234;19.292;2023-02-18T11:36:16;98380.02;;;8.17;59.16
69127;BME280;56688;50.234;19.292;2023-02-18T11:41:16;98362.48;;;8.16;60.16
69127;BME280;56688;50.234;19.292;2023-02-18T11:43:48;98371.54;;;8.09;60.82
69127;BME280;56688;50.234;19.292;2023-02-18T11:46:20;98368.93;;;8.04;61.14
69127;BME280;56688;50.234;19.292;2023-02-18T11:48:48;98373.28;;;8.03;61.36
69127;BME280;56688;50.234;19.292;2023-02-18T11:51:18;98370.56;;;8.05;61.87
69127;BME280;56688;50.234;19.292;2023-02-18T11:53:55;98362.08;;;8.10;62.71
69127;BME280;56688;50.234;19.292;2023-02-18T11:56:30;98357.39;;;8.12;62.84
69127;BME280;56688;50.234;19.292;2023-02-18T11:58:59;98355.23;;;8.04;63.65
69127;BME280;56688;50.234;19.292;2023-02-18T12:04:04;98353.15;;;7.82;64.77
69127;BME280;56688;50.234;19.292;2023-02-18T12:06:40;98345.92;;;7.74;65.76
69127;BME280;56688;50.234;19.292;2023-02-18T12:11:49;98337.23;;;7.56;66.76
69127;BME280;56688;50.234;19.292;2023-02-18T12:14:20;98336.41;;;7.44;67.40
69127;BME280;56688;50.234;19.292;2023-02-18T12:22:40;98327.73;;;7.20;69.76
69127;BME280;56688;50.234;19.292;2023-02-18T12:39:08;98291.54;;;7.22;73.58
69127;BME280;56688;50.234;19.292;2023-02-18T12:47:41;98269.85;;;7.21;73.80
69127;BME280;56688;50.234;19.292;2023-02-18T12:50:28;98255.16;;;7.15;74.37
69127;BME280;56688;50.234;19.292;2023-02-18T12:55:45;98232.72;;;7.13;75.24
69127;BME280;56688;50.234;19.292;2023-02-18T13:01:24;98216.92;;;7.23;75.55
69127;BME280;56688;50.234;19.292;2023-02-18T13:09:35;98196.48;;;7.14;76.04
69127;BME280;56688;50.234;19.292;2023-02-18T13:12:18;98192.66;;;7.07;76.51
69127;BME280;56688;50.234;19.292;2023-02-18T13:14:50;98186.79;;;7.04;76.86
69127;BME280;56688;50.234;19.292;2023-02-18T13:17:18;98185.95;;;7.04;77.09
69127;BME280;56688;50.234;19.292;2023-02-18T13:19:52;98177.96;;;7.00;77.08
69127;BME280;56688;50.234;19.292;2023-02-18T13:22:21;98169.49;;;6.97;77.40
69127;BME280;56688;50.234;19.292;2023-02-18T13:24:50;98164.61;;;6.97;77.23
69127;BME280;56688;50.234;19.292;2023-02-18T13:35:06;98140.55;;;6.92;77.86
69127;BME280;56688;50.234;19.292;2023-02-18T13:40:24;98128.80;;;6.88;78.21
69127;BME280;56688;50.234;19.292;2023-02-18T13:42:54;98122.42;;;6.89;78.58
69127;BME280;56688;50.234;19.292;2023-02-18T13:45:41;98123.45;;;6.93;78.57
69127;BME280;56688;50.234;19.292;2023-02-18T13:48:25;98116.46;;;6.94;78.71
69127;BME280;56688;50.234;19.292;2023-02-18T13:50:53;98105.67;;;6.93;78.70
69127;BME280;56688;50.234;19.292;2023-02-18T13:53:30;98099.76;;;6.90;78.52
69127;BME280;56688;50.234;19.292;2023-02-18T13:58:49;98089.17;;;6.85;79.14
69127;BME280;56688;50.234;19.292;2023-02-18T14:03:50;98071.83;;;6.80;79.36
69127;BME280;56688;50.234;19.292;2023-02-18T14:06:22;98066.61;;;6.81;79.16
69127;BME280;56688;50.234;19.292;2023-02-18T14:08:50;98058.23;;;6.81;79.77
69127;BME280;56688;50.234;19.292;2023-02-18T14:13:48;98036.10;;;6.81;79.85
69127;BME280;56688;50.234;19.292;2023-02-18T14:16:18;98040.81;;;6.77;79.53
69127;BME280;56688;50.234;19.292;2023-02-18T14:28:44;98013.88;;;6.61;80.65
69127;BME280;56688;50.234;19.292;2023-02-18T14:31:24;98015.76;;;6.63;80.29
69127;BME280;56688;50.234;19.292;2023-02-18T14:34:07;98014.61;;;6.57;80.85
69127;BME280;56688;50.234;19.292;2023-02-18T14:39:43;97997.14;;;6.63;80.91
69127;BME280;56688;50.234;19.292;2023-02-18T14:42:19;97982.73;;;6.59;80.29
69127;BME280;56688;50.234;19.292;2023-02-18T14:50:17;97968.58;;;6.53;80.47
69127;BME280;56688;50.234;19.292;2023-02-18T14:52:49;97955.70;;;6.48;80.61
69127;BME280;56688;50.234;19.292;2023-02-18T14:55:23;97943.77;;;6.46;80.80
69127;BME280;56688;50.234;19.292;2023-02-18T14:58:11;97934.23;;;6.44;80.82
69127;BME280;56688;50.234;19.292;2023-02-18T15:00:42;97917.87;;;6.43;81.23
69127;BME280;56688;50.234;19.292;2023-02-18T15:03:14;97901.61;;;6.43;81.46
69127;BME280;56688;50.234;19.292;2023-02-18T15:05:42;97898.70;;;6.42;81.44
69127;BME280;56688;50.234;19.292;2023-02-18T15:13:34;97882.08;;;6.25;82.01
69127;BME280;56688;50.234;19.292;2023-02-18T15:16:06;97876.50;;;6.17;82.15
69127;BME280;56688;50.234;19.292;2023-02-18T15:18:35;97864.56;;;6.15;82.55
69127;BME280;56688;50.234;19.292;2023-02-18T15:21:06;97863.37;;;6.14;82.97
69127;BME280;56688;50.234;19.292;2023-02-18T15:23:36;97864.32;;;6.15;83.24
69127;BME280;56688;50.234;19.292;2023-02-18T15:26:05;97853.78;;;6.15;83.77
69127;BME280;56688;50.234;19.292;2023-02-18T15:28:32;97852.27;;;6.14;83.98
69127;BME280;56688;50.234;19.292;2023-02-18T15:31:01;97842.31;;;6.14;84.35
69127;BME280;56688;50.234;19.292;2023-02-18T15:33:29;97832.23;;;6.15;84.63
69127;BME280;56688;50.234;19.292;2023-02-18T15:36:01;97825.27;;;6.15;84.95
69127;BME280;56688;50.234;19.292;2023-02-18T15:38:29;97820.00;;;6.18;85.07
69127;BME280;56688;50.234;19.292;2023-02-18T15:40:57;97812.91;;;6.23;85.56